Řízení letového provozu České republiky
OPMET data - Ceska Republika Aktualizace: 24.08.2016 19:34:10  UTC
SIGMET / AIRMET - NIL
Warning / Vystraha - NIL
 
METAR / SPECI
METAR LKCV 241900Z VRB01KT CAVOK 22/13 Q1025 NOSIG=
METAR LKKB 241900Z 10004KT CAVOK 20/13 Q1025 NOSIG =
METAR LKKU NIL
METAR LKKV 241900Z 10004KT CAVOK 19/13 Q1026 RMK REG QNH 1022=
METAR LKLN 241900Z AUTO 04002KT CAVOK 21/13 Q1025=
METAR LKMT 241930Z 04003KT CAVOK 18/14 Q1025 NOSIG=
METAR LKNA 241900Z 10003KT CAVOK 20/13 Q1026 NOSIG=
METAR LKPD 241900Z 07003KT 330V070 CAVOK 22/12 Q1024 NOSIG =
METAR LKPR 241930Z 11004KT CAVOK 21/11 Q1025 NOSIG=
METAR LKTB 241930Z 06005KT CAVOK 20/13 Q1025 NOSIG=
METAR LKVO NIL
TAF
TAF LKCV 241700Z 2418/2518 VRB02KT CAVOK      BECMG 2508/2510 10006KT=
TAF LKKB 241700Z 2418/2518 09006KT CAVOK      BECMG 2422/2424 VRB02KT      PROB40 2504/2507 7000 NSC      BECMG 2505/2507 11007KT      TEMPO 2512/2516 08010G20KT=
TAF LKKU NIL
TAF LKKV 241700Z 2418/2524 09006KT CAVOK      TEMPO 2420/2509 VRB02KT      TEMPO 2500/2507 2500 BR NSC=
TAF LKLN NIL
TAF LKMT 241700Z 2418/2524 03007KT CAVOK      BECMG 2522/2524 VRB02KT=
TAF LKNA 241700Z 2418/2518 VRB02KT CAVOK      BECMG 2508/2510 12006KT=
TAF LKPD 241700Z 2418/2518 07004KT CAVOK      BECMG 2509/2511 11010KT=
TAF LKPR 241700Z 2418/2524 11007KT CAVOK      TEMPO 2500/2507 VRB02KT=
TAF LKTB 241700Z 2418/2524 08007KT CAVOK      TEMPO 2423/2506 VRB02KT=
TAF LKVO NIL